CMA CGM Thalassa — 5BNE2 — position and weather

sailwx.info

Track history (hours):
 
Tides and Currents Weather Stations Pressure Air Temp Water Temp Dewpoint Dewpoint Depression Visibility Wind Speed Wind Dir Waves Ship Positions

CMA CGM Thalassa

Last reported at 2015-Jul-04 18:33 UTC. Time now 2015-Jul-04 19:04 UTC.
Position N 33°44' W 118°12'.

Length 347 m; draft 11.8 m.

Type: Cargo ship. MMSI: 212151000.

Date/timePositionNaut miles runAvg speedWind from/ knotsBaromVisibWave heightAir tempDewpointWater temp
2015-Jul-04 18:33N 33°44' W 118°12'0 0.0
2015-Jul-04 17:32N 33°44' W 118°12'0 0.0
2015-Jul-04 16:32N 33°44' W 118°12'0 0.0
2015-Jul-04 15:31N 33°44' W 118°12'0 0.0
2015-Jul-04 14:31N 33°44' W 118°12'0 0.0
2015-Jul-04 13:31N 33°44' W 118°12'0 0.0
2015-Jul-04 12:33N 33°44' W 118°12'0 0.0
2015-Jul-04 11:33N 33°44' W 118°12'0 0.0
2015-Jul-04 10:32N 33°44' W 118°12'0 0.0
2015-Jul-04 09:32N 33°44' W 118°12'0 0.0
2015-Jul-04 08:31N 33°44' W 118°12'0 0.0
2015-Jul-04 07:25N 33°44' W 118°12'0 0.0
2015-Jul-04 06:31N 33°44' W 118°12'0 0.0
2015-Jul-04 05:30N 33°44' W 118°12'0 0.0
2015-Jul-04 04:30N 33°44' W 118°12'0 0.0
2015-Jul-04 03:23N 33°44' W 118°12'0 0.0
2015-Jul-04 02:29N 33°44' W 118°12'0 0.0
2015-Jul-04 01:31N 33°44' W 118°12'0 0.0
2015-Jul-04 00:31N 33°44' W 118°12'0 0.0
2015-Jul-03 23:31N 33°44' W 118°12'0 0.0
2015-Jul-03 22:33N 33°44' W 118°12'0 0.0
2015-Jul-03 21:33N 33°44' W 118°12'0 0.0
2015-Jul-03 20:32N 33°44' W 118°12'0 0.0
2015-Jul-03 19:32N 33°44' W 118°12'0 0.0
2015-Jul-03 18:31N 33°44' W 118°12'0 0.0
2015-Jul-03 17:31N 33°44' W 118°12'0 0.0
2015-Jul-03 16:34N 33°44' W 118°12'0 0.0
2015-Jul-03 15:30N 33°44' W 118°12'0 0.0
2015-Jul-03 14:33N 33°44' W 118°12'0 0.0
2015-Jul-03 13:32N 33°44' W 118°12'0 0.0
2015-Jul-03 12:32N 33°44' W 118°12'0 0.0
2015-Jul-03 11:31N 33°44' W 118°12'0 0.0
2015-Jul-03 10:31N 33°44' W 118°12'0 0.0
2015-Jul-03 09:33N 33°44' W 118°12'0 0.0
2015-Jul-03 08:33N 33°44' W 118°12'0 0.0
2015-Jul-03 07:33N 33°44' W 118°12'0 0.0
2015-Jul-03 06:32N 33°44' W 118°12'0 0.0
2015-Jul-03 05:32N 33°44' W 118°12'0 0.0
2015-Jul-03 04:31N 33°44' W 118°12'0 0.0
2015-Jul-03 03:31N 33°44' W 118°12'0 0.0
2015-Jul-03 02:33N 33°44' W 118°12'0 0.0
2015-Jul-03 01:33N 33°44' W 118°12'0 0.0
2015-Jul-03 00:33N 33°44' W 118°12'0 0.0
2015-Jul-02 23:32N 33°44' W 118°12'0 0.0
2015-Jul-02 22:32N 33°44' W 118°12'0 0.0
2015-Jul-02 21:31N 33°44' W 118°12'0 0.0
2015-Jul-02 20:31N 33°44' W 118°12'0 0.0
2015-Jul-02 19:33N 33°44' W 118°12'0 0.0
2015-Jul-02 18:33N 33°44' W 118°12'0 0.0
2015-Jul-02 17:33N 33°44' W 118°12'0 0.0
2015-Jul-02 16:32N 33°44' W 118°12'0 0.0
2015-Jul-02 15:32N 33°44' W 118°12'0 0.0
2015-Jul-02 14:28N 33°44' W 118°12'0 0.0
2015-Jul-02 13:31N 33°44' W 118°12'0 0.0
2015-Jul-02 12:33N 33°44' W 118°12'0 0.0
2015-Jul-02 11:33N 33°44' W 118°12'1 0.6
2015-Jul-02 10:33N 33°44' W 118°11'3 3.3
2015-Jul-02 09:31N 33°41' W 118°09'0 0.1
2015-Jul-02 08:31N 33°41' W 118°09'0 0.0
2015-Jul-02 07:31N 33°41' W 118°09'0 0.0
2015-Jul-02 06:33N 33°41' W 118°09'0 0.0
2015-Jul-02 05:33N 33°41' W 118°09'0 0.0
2015-Jul-02 04:32N 33°41' W 118°09'0 0.0
2015-Jul-02 03:32N 33°41' W 118°09'0 0.0
2015-Jul-02 02:31N 33°41' W 118°09'0 0.0
2015-Jul-02 01:31N 33°41' W 118°09'0 0.0
2015-Jul-02 00:31N 33°41' W 118°09'0 0.4
2015-Jul-01 23:33N 33°41' W 118°09'6 6.1
2015-Jul-01 22:33N 33°36' W 118°14'1211.6
2015-Jul-01 21:33N 33°36' W 118°28'1211.7
2015-Jul-01 20:33N 33°36' W 118°42'1414.2
2015-Jul-01 19:34N 33°38' W 118°59'1514.7
2015-Jul-01 18:33N 33°37' W 119°16'1514.7
2015-Jul-01 17:34N 33°34' W 119°33'1514.7
2015-Jul-01 16:34N 33°30' W 119°51'5 4.9
2015-Jul-01 15:33N 33°29' W 119°57'1512.6
2015-Jul-01 14:19N 33°29' W 120°15'1215.9
2015-Jul-01 13:34N 33°33' W 120°29'2015.9
2015-Jul-01 12:18N 33°40' W 120°51'1216.0
2015-Jul-01 11:32N 33°44' W 121°05'1615.8
2015-Jul-01 10:33N 33°49' W 121°23'1616.0
2015-Jul-01 09:33N 33°53' W 121°41'1616.3
2015-Jul-01 08:34N 33°58' W 121°60'4815.9
2015-Jul-01 05:33N 34°12' W 122°55'1715.8
2015-Jul-01 04:30N 34°17' W 123°14'6115.3
2015-Jul-01 00:30N 34°36' W 124°25'1415.2
2015-Jun-30 23:33N 34°40' W 124°42'1515.4
2015-Jun-30 22:33N 34°44' W 124°60'1515.4
2015-Jun-30 21:34N 34°49' W 125°18'1515.4
2015-Jun-30 20:33N 34°54' W 125°35'1816.9
2015-Jun-30 19:30N 34°59' W 125°56'2317.3
2015-Jun-30 18:11N 35°12' W 126°19'1517.5
2015-Jun-30 17:20N 35°20' W 126°34'1817.5
2015-Jun-30 16:20N 35°31' W 126°51'3817.7
2015-Jun-30 14:10N 35°53' W 127°29'7119.4
2015-Jun-30 10:29N 36°34' W 128°42'8020.3
2015-Jun-30 06:34N 37°20' W 130°04'  
Track history (hours):
 
Tides and Currents Weather Stations Pressure Air Temp Water Temp Dewpoint Dewpoint Depression Visibility Wind Speed Wind Dir Waves Ship Positions

CMA CGM Thalassa

Last reported at 2015-Jul-04 18:33 UTC. Time now 2015-Jul-04 19:04 UTC.
Position N 33°44' W 118°12'.

Length 347 m; draft 11.8 m.

Type: Cargo ship. MMSI: 212151000.

Date/timePositionNaut miles runAvg speedWind from/ knotsBaromVisibWave heightAir tempDewpointWater temp
2015-Jul-04 18:33N 33°44' W 118°12'0 0.0
2015-Jul-04 17:32N 33°44' W 118°12'0 0.0
2015-Jul-04 16:32N 33°44' W 118°12'0 0.0
2015-Jul-04 15:31N 33°44' W 118°12'0 0.0
2015-Jul-04 14:31N 33°44' W 118°12'0 0.0
2015-Jul-04 13:31N 33°44' W 118°12'0 0.0
2015-Jul-04 12:33N 33°44' W 118°12'0 0.0
2015-Jul-04 11:33N 33°44' W 118°12'0 0.0
2015-Jul-04 10:32N 33°44' W 118°12'0 0.0
2015-Jul-04 09:32N 33°44' W 118°12'0 0.0
2015-Jul-04 08:31N 33°44' W 118°12'0 0.0
2015-Jul-04 07:25N 33°44' W 118°12'0 0.0
2015-Jul-04 06:31N 33°44' W 118°12'0 0.0
2015-Jul-04 05:30N 33°44' W 118°12'0 0.0
2015-Jul-04 04:30N 33°44' W 118°12'0 0.0
2015-Jul-04 03:23N 33°44' W 118°12'0 0.0
2015-Jul-04 02:29N 33°44' W 118°12'0 0.0
2015-Jul-04 01:31N 33°44' W 118°12'0 0.0
2015-Jul-04 00:31N 33°44' W 118°12'0 0.0
2015-Jul-03 23:31N 33°44' W 118°12'0 0.0
2015-Jul-03 22:33N 33°44' W 118°12'0 0.0
2015-Jul-03 21:33N 33°44' W 118°12'0 0.0
2015-Jul-03 20:32N 33°44' W 118°12'0 0.0
2015-Jul-03 19:32N 33°44' W 118°12'0 0.0
2015-Jul-03 18:31N 33°44' W 118°12'0 0.0
2015-Jul-03 17:31N 33°44' W 118°12'0 0.0
2015-Jul-03 16:34N 33°44' W 118°12'0 0.0
2015-Jul-03 15:30N 33°44' W 118°12'0 0.0
2015-Jul-03 14:33N 33°44' W 118°12'0 0.0
2015-Jul-03 13:32N 33°44' W 118°12'0 0.0
2015-Jul-03 12:32N 33°44' W 118°12'0 0.0
2015-Jul-03 11:31N 33°44' W 118°12'0 0.0
2015-Jul-03 10:31N 33°44' W 118°12'0 0.0
2015-Jul-03 09:33N 33°44' W 118°12'0 0.0
2015-Jul-03 08:33N 33°44' W 118°12'0 0.0
2015-Jul-03 07:33N 33°44' W 118°12'0 0.0
2015-Jul-03 06:32N 33°44' W 118°12'0 0.0
2015-Jul-03 05:32N 33°44' W 118°12'0 0.0
2015-Jul-03 04:31N 33°44' W 118°12'0 0.0
2015-Jul-03 03:31N 33°44' W 118°12'0 0.0
2015-Jul-03 02:33N 33°44' W 118°12'0 0.0
2015-Jul-03 01:33N 33°44' W 118°12'0 0.0
2015-Jul-03 00:33N 33°44' W 118°12'0 0.0
2015-Jul-02 23:32N 33°44' W 118°12'0 0.0
2015-Jul-02 22:32N 33°44' W 118°12'0 0.0
2015-Jul-02 21:31N 33°44' W 118°12'0 0.0
2015-Jul-02 20:31N 33°44' W 118°12'0 0.0
2015-Jul-02 19:33N 33°44' W 118°12'0 0.0
2015-Jul-02 18:33N 33°44' W 118°12'0 0.0
2015-Jul-02 17:33N 33°44' W 118°12'0 0.0
2015-Jul-02 16:32N 33°44' W 118°12'0 0.0
2015-Jul-02 15:32N 33°44' W 118°12'0 0.0
2015-Jul-02 14:28N 33°44' W 118°12'0 0.0
2015-Jul-02 13:31N 33°44' W 118°12'0 0.0
2015-Jul-02 12:33N 33°44' W 118°12'0 0.0
2015-Jul-02 11:33N 33°44' W 118°12'1 0.6
2015-Jul-02 10:33N 33°44' W 118°11'3 3.3
2015-Jul-02 09:31N 33°41' W 118°09'0 0.1
2015-Jul-02 08:31N 33°41' W 118°09'0 0.0
2015-Jul-02 07:31N 33°41' W 118°09'0 0.0
2015-Jul-02 06:33N 33°41' W 118°09'0 0.0
2015-Jul-02 05:33N 33°41' W 118°09'0 0.0
2015-Jul-02 04:32N 33°41' W 118°09'0 0.0
2015-Jul-02 03:32N 33°41' W 118°09'0 0.0
2015-Jul-02 02:31N 33°41' W 118°09'0 0.0
2015-Jul-02 01:31N 33°41' W 118°09'0 0.0
2015-Jul-02 00:31N 33°41' W 118°09'0 0.4
2015-Jul-01 23:33N 33°41' W 118°09'6 6.1
2015-Jul-01 22:33N 33°36' W 118°14'1211.6
2015-Jul-01 21:33N 33°36' W 118°28'1211.7
2015-Jul-01 20:33N 33°36' W 118°42'1414.2
2015-Jul-01 19:34N 33°38' W 118°59'1514.7
2015-Jul-01 18:33N 33°37' W 119°16'1514.7
2015-Jul-01 17:34N 33°34' W 119°33'1514.7
2015-Jul-01 16:34N 33°30' W 119°51'5 4.9
2015-Jul-01 15:33N 33°29' W 119°57'1512.6
2015-Jul-01 14:19N 33°29' W 120°15'1215.9
2015-Jul-01 13:34N 33°33' W 120°29'2015.9
2015-Jul-01 12:18N 33°40' W 120°51'1216.0
2015-Jul-01 11:32N 33°44' W 121°05'1615.8
2015-Jul-01 10:33N 33°49' W 121°23'1616.0
2015-Jul-01 09:33N 33°53' W 121°41'1616.3
2015-Jul-01 08:34N 33°58' W 121°60'4815.9
2015-Jul-01 05:33N 34°12' W 122°55'1715.8
2015-Jul-01 04:30N 34°17' W 123°14'6115.3
2015-Jul-01 00:30N 34°36' W 124°25'1415.2
2015-Jun-30 23:33N 34°40' W 124°42'1515.4
2015-Jun-30 22:33N 34°44' W 124°60'1515.4
2015-Jun-30 21:34N 34°49' W 125°18'1515.4
2015-Jun-30 20:33N 34°54' W 125°35'1816.9
2015-Jun-30 19:30N 34°59' W 125°56'2317.3
2015-Jun-30 18:11N 35°12' W 126°19'1517.5
2015-Jun-30 17:20N 35°20' W 126°34'1817.5
2015-Jun-30 16:20N 35°31' W 126°51'3817.7
2015-Jun-30 14:10N 35°53' W 127°29'7119.4
2015-Jun-30 10:29N 36°34' W 128°42'8020.3
2015-Jun-30 06:34N 37°20' W 130°04'  

Dump ship's entire track history